Time;durP1;ratioP1;P1;durP2;ratioP2;P2;SDS_P1;SDS_P2;PMS_P1;PMS_P2;Temp;Humidity;BMP_temperature;BMP_pressure;BME280_temperature;BME280_humidity;BME280_pressure;Samples;Min_cycle;Max_cycle;Signal;HPM_P1;HPM_P2
2022/05/10 00:02:16;;;;;;;22.77;4.25;;;31.60;16.30;;;;;;5037237;28;20420;-65
2022/05/10 00:04:49;;;;;;;24.60;5.03;;;31.60;16.70;;;;;;5036561;28;20084;-65
2022/05/10 00:07:17;;;;;;;25.10;3.78;;;31.50;16.20;;;;;;5039735;28;20109;-65
2022/05/10 00:09:44;;;;;;;69.38;6.50;;;31.30;16.40;;;;;;5034401;28;20065;-65
2022/05/10 00:12:10;;;;;;;29.38;4.30;;;31.10;16.70;;;;;;5032339;28;20056;-67
2022/05/10 00:14:38;;;;;;;27.77;3.95;;;31.10;16.70;;;;;;5034626;28;20549;-65
2022/05/10 00:17:05;;;;;;;28.10;4.05;;;31.10;16.80;;;;;;5037422;28;20059;-64
2022/05/10 00:19:31;;;;;;;36.00;5.75;;;30.90;16.50;;;;;;5033875;28;21082;-66
2022/05/10 00:21:58;;;;;;;31.65;4.72;;;30.80;16.70;;;;;;5028578;28;20060;-66
2022/05/10 00:24:25;;;;;;;33.75;5.07;;;30.60;16.50;;;;;;5026244;28;20243;-66
2022/05/10 00:26:52;;;;;;;21.15;4.75;;;30.60;16.20;;;;;;5033781;28;20072;-64
2022/05/10 00:29:18;;;;;;;28.40;4.97;;;30.50;16.60;;;;;;5033029;28;20051;-63
2022/05/10 00:31:45;;;;;;;19.67;4.53;;;30.50;16.70;;;;;;5029376;28;20048;-65
2022/05/10 00:34:17;;;;;;;31.05;5.35;;;30.50;16.80;;;;;;5032514;28;20053;-64
2022/05/10 00:36:43;;;;;;;28.75;4.75;;;30.60;17.00;;;;;;5044762;28;20146;-66
2022/05/10 00:39:11;;;;;;;54.05;6.25;;;30.40;16.90;;;;;;5031784;28;20156;-65
2022/05/10 00:42:00;;;;;;;31.00;5.90;;;30.50;16.90;;;;;;5036464;28;20051;-63
2022/05/10 00:44:49;;;;;;;40.55;6.38;;;30.40;16.80;;;;;;5033343;28;20420;-66
2022/05/10 00:47:36;;;;;;;27.38;5.22;;;30.20;16.90;;;;;;5034708;28;20067;-63
2022/05/10 00:50:06;;;;;;;25.38;4.07;;;30.10;17.20;;;;;;5032001;28;20067;-63
2022/05/10 00:52:57;;;;;;;31.67;4.53;;;30.10;17.00;;;;;;5025292;28;20051;-63
2022/05/10 00:56:14;;;;;;;25.30;4.00;;;30.10;17.00;;;;;;5035750;28;20056;-65
2022/05/10 00:58:57;;;;;;;23.55;4.70;;;30.00;17.10;;;;;;5046286;28;20433;-65
2022/05/10 01:01:32;;;;;;;22.00;4.30;;;30.00;17.30;;;;;;5030616;28;20053;-64
2022/05/10 01:04:15;;;;;;;15.60;3.30;;;29.90;17.40;;;;;;5038795;28;20101;-63
2022/05/10 01:06:56;;;;;;;20.63;3.83;;;29.80;17.40;;;;;;5044934;28;20083;-68
2022/05/10 01:09:44;;;;;;;19.00;3.90;;;29.60;17.60;;;;;;5052675;28;20051;-64
2022/05/10 01:12:30;;;;;;;25.70;4.15;;;29.50;18.00;;;;;;5034602;28;20075;-65
2022/05/10 01:15:09;;;;;;;20.52;3.88;;;29.50;18.20;;;;;;5032781;28;20059;-67
2022/05/10 01:17:36;;;;;;;14.52;3.90;;;29.40;18.30;;;;;;5039691;28;20086;-69
2022/05/10 01:20:04;;;;;;;31.80;5.07;;;29.10;18.50;;;;;;5035612;28;20114;-69
2022/05/10 01:23:18;;;;;;;37.85;5.45;;;29.00;18.80;;;;;;5041302;28;20111;-66
2022/05/10 01:25:58;;;;;;;31.27;5.38;;;29.00;18.50;;;;;;4993881;28;20096;-67
2022/05/10 01:28:46;;;;;;;34.45;5.57;;;28.80;18.50;;;;;;5031752;28;20092;-68
2022/05/10 01:31:20;;;;;;;34.45;6.40;;;28.70;18.90;;;;;;5040236;28;20536;-67
2022/05/10 01:33:54;;;;;;;33.70;5.53;;;28.70;18.70;;;;;;5036990;28;20546;-68
2022/05/10 01:36:34;;;;;;;41.03;6.50;;;28.50;18.30;;;;;;5035515;28;20086;-69
2022/05/10 01:39:03;;;;;;;39.67;6.80;;;28.30;18.30;;;;;;5039779;28;20110;-67
2022/05/10 01:41:54;;;;;;;35.08;6.53;;;28.20;18.40;;;;;;5039385;28;20081;-67
2022/05/10 01:44:27;;;;;;;42.45;6.07;;;28.10;18.80;;;;;;5043432;28;20669;-69
2022/05/10 01:47:06;;;;;;;30.98;5.30;;;27.90;18.30;;;;;;5042980;28;20527;-71
2022/05/10 01:49:38;;;;;;;29.17;5.35;;;27.90;18.30;;;;;;5040923;28;20085;-67
2022/05/10 01:52:13;;;;;;;40.25;5.97;;;28.00;18.30;;;;;;5035569;28;20077;-67
2022/05/10 01:54:55;;;;;;;33.22;5.78;;;27.70;18.30;;;;;;5039746;28;20064;-70
2022/05/10 01:57:22;;;;;;;43.15;5.78;;;27.60;18.50;;;;;;5038482;28;20085;-68
2022/05/10 01:59:55;;;;;;;41.22;6.07;;;27.50;18.70;;;;;;5039393;28;20093;-69
2022/05/10 02:02:26;;;;;;;44.55;5.95;;;27.30;18.90;;;;;;5035391;28;20063;-69
2022/05/10 02:04:57;;;;;;;35.92;5.60;;;27.10;19.10;;;;;;5035210;28;20091;-69
2022/05/10 02:07:26;;;;;;;41.72;5.95;;;26.90;19.40;;;;;;5042849;28;20076;-68
2022/05/10 02:10:09;;;;;;;36.25;5.75;;;26.70;19.80;;;;;;5036603;28;20424;-67
2022/05/10 02:12:55;;;;;;;45.92;6.10;;;26.50;19.90;;;;;;5045035;28;20076;-68
2022/05/10 02:15:35;;;;;;;38.35;5.68;;;26.50;20.20;;;;;;5038644;28;20102;-69
2022/05/10 02:18:35;;;;;;;34.05;5.10;;;26.40;20.70;;;;;;5038748;28;20066;-66
2022/05/10 02:21:07;;;;;;;29.00;5.22;;;26.30;21.10;;;;;;5008177;28;20183;-70
2022/05/10 02:23:53;;;;;;;29.77;5.60;;;26.10;21.30;;;;;;4992978;28;21486;-68
2022/05/10 02:26:35;;;;;;;33.63;5.05;;;25.90;21.70;;;;;;4979169;28;20188;-66
2022/05/10 02:29:40;;;;;;;32.33;4.80;;;25.80;21.90;;;;;;4993675;28;20104;-67
2022/05/10 02:35:06;;;;;;;28.08;4.68;;;25.50;22.50;;;;;;4970341;28;20584;-67
2022/05/10 02:37:32;;;;;;;33.88;4.30;;;25.40;22.90;;;;;;4970435;28;20140;-70
2022/05/10 02:40:00;;;;;;;26.63;4.38;;;25.40;23.40;;;;;;4970545;28;20116;-67
2022/05/10 02:42:27;;;;;;;35.90;5.03;;;25.30;23.80;;;;;;4952717;28;20086;-69
2022/05/10 02:44:55;;;;;;;22.80;4.55;;;25.10;24.10;;;;;;4970207;28;20077;-71
2022/05/10 02:47:39;;;;;;;26.58;5.00;;;25.10;24.70;;;;;;4970519;28;20145;-70
2022/05/10 02:50:15;;;;;;;31.15;4.72;;;24.90;25.10;;;;;;4953110;28;20563;-66
2022/05/10 02:52:42;;;;;;;31.43;4.73;;;24.80;26.10;;;;;;4969373;28;20077;-65
2022/05/10 02:55:38;;;;;;;36.40;5.40;;;24.70;26.30;;;;;;4970500;28;20591;-69
2022/05/10 02:58:38;;;;;;;41.03;5.93;;;24.60;26.80;;;;;;5000199;28;20085;-66
2022/05/10 03:01:26;;;;;;;30.42;5.13;;;24.40;27.40;;;;;;5008303;28;20909;-69
2022/05/10 03:03:53;;;;;;;36.05;6.18;;;24.30;27.70;;;;;;4990495;28;20066;-67
2022/05/10 03:06:23;;;;;;;29.38;5.35;;;24.30;28.00;;;;;;5028691;28;20100;-66
2022/05/10 03:08:50;;;;;;;48.95;6.65;;;24.20;28.10;;;;;;5039231;28;20433;-67
2022/05/10 03:11:17;;;;;;;36.95;6.35;;;24.20;28.30;;;;;;5035086;28;20072;-66
2022/05/10 03:13:44;;;;;;;50.45;6.97;;;24.20;28.40;;;;;;5035313;28;20073;-66
2022/05/10 03:16:11;;;;;;;34.25;5.35;;;24.10;28.60;;;;;;5040458;28;20088;-66
2022/05/10 03:18:38;;;;;;;39.08;5.45;;;24.00;28.80;;;;;;5039790;28;20079;-64
2022/05/10 03:21:04;;;;;;;35.55;6.32;;;23.90;29.10;;;;;;5036021;28;20100;-67
2022/05/10 03:23:31;;;;;;;39.15;5.65;;;23.90;29.30;;;;;;5038004;28;20144;-67
2022/05/10 03:25:58;;;;;;;37.42;6.05;;;23.90;29.40;;;;;;5039368;28;20457;-67
2022/05/10 03:28:25;;;;;;;32.65;5.60;;;23.90;29.70;;;;;;5034039;28;20158;-66
2022/05/10 03:30:52;;;;;;;31.70;4.80;;;23.80;29.90;;;;;;5033239;28;20473;-70
2022/05/10 03:33:18;;;;;;;25.30;5.22;;;23.70;30.00;;;;;;5032441;28;20130;-69
2022/05/10 03:35:45;;;;;;;25.63;5.00;;;23.70;30.10;;;;;;5030128;28;20580;-68
2022/05/10 03:38:12;;;;;;;45.75;5.22;;;23.60;30.50;;;;;;5029583;28;20514;-70
2022/05/10 03:40:38;;;;;;;35.78;5.07;;;23.60;30.60;;;;;;5031473;28;20085;-68
2022/05/10 03:43:08;;;;;;;34.88;5.20;;;23.50;30.80;;;;;;5034486;28;20100;-70
2022/05/10 03:45:35;;;;;;;40.30;4.93;;;23.50;31.10;;;;;;5003706;28;20111;-73
2022/05/10 03:48:02;;;;;;;34.40;5.93;;;23.40;31.10;;;;;;5034157;28;20099;-70
2022/05/10 03:50:28;;;;;;;43.28;5.63;;;23.30;31.30;;;;;;5035431;28;20073;-69
2022/05/10 03:52:55;;;;;;;31.88;4.80;;;23.30;31.40;;;;;;5028024;28;20069;-68
2022/05/10 03:55:24;;;;;;;33.25;5.10;;;23.20;31.30;;;;;;5032623;28;20434;-68
2022/05/10 03:57:52;;;;;;;44.08;5.38;;;23.20;31.20;;;;;;5045361;28;20087;-72
2022/05/10 04:00:25;;;;;;;31.35;5.97;;;23.20;30.90;;;;;;5036151;28;20490;-69
2022/05/10 04:02:54;;;;;;;34.10;4.63;;;23.10;31.10;;;;;;5033893;28;20071;-69
2022/05/10 04:05:21;;;;;;;26.48;4.43;;;23.00;31.10;;;;;;5028224;28;20180;-68
2022/05/10 04:07:48;;;;;;;35.47;6.10;;;23.00;30.70;;;;;;5036085;28;20079;-68
2022/05/10 04:10:16;;;;;;;31.23;5.07;;;23.00;30.70;;;;;;5037447;28;20079;-67
2022/05/10 04:12:43;;;;;;;34.92;5.30;;;23.00;30.80;;;;;;5036149;28;20549;-69
2022/05/10 04:15:12;;;;;;;30.10;4.70;;;22.90;30.80;;;;;;5036512;28;20523;-71
2022/05/10 04:17:39;;;;;;;24.30;4.72;;;22.90;30.80;;;;;;5034951;28;20442;-70
2022/05/10 04:20:09;;;;;;;31.23;4.53;;;22.80;30.90;;;;;;5035405;28;20088;-69
2022/05/10 04:22:36;;;;;;;26.13;4.22;;;22.60;31.20;;;;;;5034355;28;20135;-70
2022/05/10 04:25:03;;;;;;;20.95;3.85;;;22.70;31.40;;;;;;5030707;28;20147;-71
2022/05/10 04:27:29;;;;;;;19.52;4.07;;;22.60;31.50;;;;;;5033149;28;20126;-70
2022/05/10 04:29:56;;;;;;;26.63;4.20;;;22.60;31.90;;;;;;5045469;28;20521;-72
2022/05/10 04:32:23;;;;;;;24.02;4.10;;;22.50;32.30;;;;;;5030618;28;20091;-69
2022/05/10 04:34:49;;;;;;;39.00;4.45;;;22.50;32.40;;;;;;5034380;28;20565;-70
2022/05/10 04:37:16;;;;;;;25.80;3.97;;;22.40;32.50;;;;;;5042936;28;20081;-70
2022/05/10 04:42:26;;;;;;;41.22;4.95;;;22.20;32.50;;;;;;5032757;28;20517;-70
2022/05/10 04:44:53;;;;;;;28.92;4.93;;;22.20;32.90;;;;;;5037752;28;20079;-72
2022/05/10 04:47:19;;;;;;;42.50;4.90;;;22.10;33.00;;;;;;5034608;28;20088;-71
2022/05/10 04:49:45;;;;;;;39.97;4.97;;;22.10;33.00;;;;;;5033743;28;20084;-69
2022/05/10 04:52:12;;;;;;;38.80;4.82;;;22.00;33.10;;;;;;5034801;28;20069;-71
2022/05/10 04:54:41;;;;;;;32.58;4.70;;;21.90;32.90;;;;;;5032383;28;20126;-70
2022/05/10 04:57:09;;;;;;;31.33;4.40;;;21.80;32.50;;;;;;5031904;28;20081;-69
2022/05/10 04:59:36;;;;;;;35.45;4.85;;;21.80;32.00;;;;;;5046238;28;20072;-68
2022/05/10 05:02:02;;;;;;;39.60;3.90;;;21.80;31.40;;;;;;5033180;28;20113;-68
2022/05/10 05:04:29;;;;;;;39.80;4.90;;;21.70;31.00;;;;;;5029926;28;20439;-68
2022/05/10 05:06:55;;;;;;;26.92;3.80;;;21.70;30.20;;;;;;5029726;28;20092;-68
2022/05/10 05:09:21;;;;;;;28.85;4.20;;;21.70;29.50;;;;;;5032480;28;20073;-70
2022/05/10 05:11:48;;;;;;;42.65;5.43;;;21.60;29.10;;;;;;5045423;28;20071;-69
2022/05/10 05:14:14;;;;;;;26.27;4.05;;;21.50;28.70;;;;;;5035630;28;20065;-66
2022/05/10 05:16:40;;;;;;;40.35;5.00;;;21.40;28.70;;;;;;5046998;28;20426;-69
2022/05/10 05:19:07;;;;;;;29.88;4.13;;;21.30;29.10;;;;;;5038477;28;20164;-67
2022/05/10 05:21:33;;;;;;;35.60;4.55;;;21.30;29.30;;;;;;5035017;28;20076;-68
2022/05/10 05:24:00;;;;;;;38.55;4.97;;;21.30;29.30;;;;;;5040805;28;20120;-71
2022/05/10 05:26:26;;;;;;;45.10;4.50;;;21.30;29.40;;;;;;5049177;28;20080;-64
2022/05/10 05:28:52;;;;;;;68.25;5.68;;;21.20;29.20;;;;;;5040249;28;20077;-69
2022/05/10 05:31:20;;;;;;;49.45;5.05;;;21.20;29.10;;;;;;5034472;28;20152;-71
2022/05/10 05:33:46;;;;;;;58.05;5.72;;;21.10;29.00;;;;;;5015785;28;20390;-65
2022/05/10 05:36:13;;;;;;;56.40;6.13;;;21.10;28.80;;;;;;5040124;28;20073;-69
2022/05/10 05:38:39;;;;;;;60.42;6.35;;;21.10;28.80;;;;;;5030054;28;20080;-66
2022/05/10 05:41:06;;;;;;;40.65;5.13;;;21.10;28.50;;;;;;5034910;28;20151;-67
2022/05/10 05:43:34;;;;;;;36.55;4.15;;;21.30;28.10;;;;;;5033734;28;20076;-67
2022/05/10 05:46:02;;;;;;;29.65;3.30;;;21.30;27.40;;;;;;5024164;28;20265;-70
2022/05/10 05:48:29;;;;;;;33.13;3.97;;;21.30;27.20;;;;;;5040199;28;20561;-68
2022/05/10 05:50:55;;;;;;;46.40;3.83;;;21.30;27.00;;;;;;5038522;28;20107;-68
2022/05/10 05:53:23;;;;;;;36.83;3.90;;;21.40;26.60;;;;;;5038869;28;20104;-68
2022/05/10 05:55:50;;;;;;;31.13;3.35;;;21.30;26.20;;;;;;5048823;28;20069;-67
2022/05/10 05:58:17;;;;;;;46.08;4.30;;;21.40;25.80;;;;;;5039035;28;20523;-67
2022/05/10 06:00:43;;;;;;;36.20;4.30;;;21.40;25.30;;;;;;5040180;28;20079;-68
2022/05/10 06:03:10;;;;;;;44.85;4.75;;;21.40;25.10;;;;;;5040954;28;20081;-69
2022/05/10 06:05:36;;;;;;;46.80;4.53;;;21.30;24.80;;;;;;5040644;28;20549;-67
2022/05/10 06:08:06;;;;;;;38.97;5.18;;;21.30;24.50;;;;;;5035951;28;20501;-67
2022/05/10 06:10:32;;;;;;;40.40;4.60;;;21.40;24.20;;;;;;5035211;28;20095;-66
2022/05/10 06:13:03;;;;;;;33.10;3.50;;;21.40;24.00;;;;;;5035947;28;20076;-66
2022/05/10 06:15:30;;;;;;;26.48;3.85;;;21.40;23.80;;;;;;5043853;28;20060;-67
2022/05/10 06:17:57;;;;;;;46.00;4.13;;;21.40;23.40;;;;;;5039045;28;20088;-67
2022/05/10 06:20:24;;;;;;;56.47;3.92;;;21.40;23.30;;;;;;5055297;28;20081;-67
2022/05/10 06:22:51;;;;;;;38.85;4.00;;;21.40;23.30;;;;;;5036811;28;20084;-67
2022/05/10 06:25:20;;;;;;;34.78;4.75;;;21.30;23.30;;;;;;5039087;28;20211;-69
2022/05/10 06:27:48;;;;;;;60.38;4.55;;;21.30;23.30;;;;;;5046343;28;20118;-68
2022/05/10 06:30:15;;;;;;;22.90;3.33;;;21.20;23.40;;;;;;5039958;28;20072;-66
2022/05/10 06:32:42;;;;;;;33.63;4.55;;;21.10;23.60;;;;;;5036656;28;20127;-67
2022/05/10 06:35:08;;;;;;;27.33;3.00;;;21.20;23.80;;;;;;5039518;28;20114;-67
2022/05/10 06:40:20;;;;;;;22.35;3.05;;;21.20;23.90;;;;;;5041530;28;20076;-68
2022/05/10 06:42:47;;;;;;;19.70;2.72;;;21.00;23.80;;;;;;5035191;28;20701;-68
2022/05/10 06:45:16;;;;;;;19.55;2.75;;;21.00;23.90;;;;;;5042497;28;20083;-69
2022/05/10 06:47:43;;;;;;;19.02;2.70;;;21.00;23.80;;;;;;5038103;28;20156;-67
2022/05/10 06:50:13;;;;;;;20.23;2.40;;;20.90;23.80;;;;;;5014335;28;20550;-68
2022/05/10 06:52:40;;;;;;;21.55;3.35;;;20.90;23.60;;;;;;5040236;28;20599;-67
2022/05/10 06:55:08;;;;;;;17.98;2.70;;;20.90;23.20;;;;;;5040621;28;20061;-67
2022/05/10 06:57:34;;;;;;;24.27;3.20;;;20.80;23.10;;;;;;5038730;28;20423;-66
2022/05/10 07:00:01;;;;;;;13.00;2.47;;;20.90;22.50;;;;;;5037085;28;20115;-66
2022/05/10 07:02:28;;;;;;;18.80;2.45;;;20.80;22.00;;;;;;5037356;28;20091;-67
2022/05/10 07:04:55;;;;;;;32.83;2.92;;;20.80;21.50;;;;;;5022619;28;20433;-67
2022/05/10 07:07:21;;;;;;;20.00;2.67;;;20.90;21.10;;;;;;5038098;28;20161;-67
2022/05/10 07:09:48;;;;;;;17.02;3.13;;;20.90;21.00;;;;;;5036269;28;20486;-68
2022/05/10 07:12:14;;;;;;;19.38;3.03;;;20.80;21.10;;;;;;5013520;28;20532;-67
2022/05/10 07:14:45;;;;;;;21.00;3.00;;;20.80;21.00;;;;;;5040869;28;20143;-67
2022/05/10 07:17:12;;;;;;;14.98;2.65;;;20.80;20.80;;;;;;5037747;28;20175;-67
2022/05/10 07:19:38;;;;;;;14.95;2.63;;;20.80;20.40;;;;;;5036737;28;20640;-66
2022/05/10 07:22:05;;;;;;;17.65;2.70;;;20.80;20.00;;;;;;5042167;28;20085;-67
2022/05/10 07:24:32;;;;;;;15.32;2.08;;;20.80;19.60;;;;;;5037223;28;20585;-67
2022/05/10 07:26:58;;;;;;;22.75;3.05;;;20.80;19.10;;;;;;5038489;28;20104;-67
2022/05/10 07:29:25;;;;;;;21.10;2.33;;;20.90;18.10;;;;;;5040062;28;20069;-69
2022/05/10 07:31:53;;;;;;;23.98;2.75;;;20.90;17.50;;;;;;5039034;28;20122;-68
2022/05/10 07:34:19;;;;;;;18.23;3.03;;;20.90;16.90;;;;;;5041006;28;20069;-70
2022/05/10 07:36:45;;;;;;;15.93;2.40;;;20.90;17.10;;;;;;5039607;28;20073;-67
2022/05/10 07:39:14;;;;;;;20.10;2.92;;;20.90;17.30;;;;;;5038051;28;20076;-66
2022/05/10 07:41:42;;;;;;;16.15;2.05;;;20.90;17.30;;;;;;5034710;28;20081;-68
2022/05/10 07:44:09;;;;;;;12.57;2.47;;;20.90;16.90;;;;;;5039446;28;20589;-68
2022/05/10 07:46:35;;;;;;;11.30;2.15;;;20.90;16.60;;;;;;5031345;28;20105;-68
2022/05/10 07:49:02;;;;;;;13.15;2.00;;;20.90;16.50;;;;;;5042441;28;20199;-69
2022/05/10 07:51:29;;;;;;;13.07;1.88;;;21.00;16.00;;;;;;5039220;28;20072;-67
2022/05/10 07:53:55;;;;;;;19.92;2.25;;;21.10;15.70;;;;;;5037946;28;20083;-71
2022/05/10 07:56:24;;;;;;;10.10;1.70;;;21.00;15.70;;;;;;5038574;28;20084;-66
2022/05/10 07:58:51;;;;;;;12.90;2.05;;;21.00;16.20;;;;;;5040294;28;20137;-68
2022/05/10 08:01:19;;;;;;;10.73;1.58;;;20.90;16.70;;;;;;5037546;28;20215;-69
2022/05/10 08:03:46;;;;;;;16.15;1.75;;;20.90;16.70;;;;;;5037454;28;20084;-70
2022/05/10 08:06:12;;;;;;;10.25;1.83;;;20.90;16.70;;;;;;5034629;28;20534;-67
2022/05/10 08:08:39;;;;;;;16.73;2.28;;;20.90;16.90;;;;;;5036999;28;20076;-69
2022/05/10 08:11:08;;;;;;;10.43;2.25;;;20.80;16.90;;;;;;5034116;28;20084;-67
2022/05/10 08:13:37;;;;;;;13.80;2.08;;;20.80;16.90;;;;;;5030149;28;20079;-68
2022/05/10 08:16:03;;;;;;;6.03;2.20;;;20.80;16.90;;;;;;5038312;28;20155;-70
2022/05/10 08:18:30;;;;;;;14.93;2.70;;;20.80;16.90;;;;;;5037957;28;20073;-67
2022/05/10 08:21:00;;;;;;;16.13;2.30;;;20.80;17.20;;;;;;5037723;28;20080;-67
2022/05/10 08:23:29;;;;;;;7.72;1.77;;;20.80;17.30;;;;;;5039030;28;20151;-68
2022/05/10 08:25:57;;;;;;;12.13;1.92;;;20.80;17.50;;;;;;5038053;28;20092;-68
2022/05/10 08:28:25;;;;;;;13.07;2.55;;;20.80;17.80;;;;;;5037251;28;20095;-68
2022/05/10 08:30:52;;;;;;;5.00;1.65;;;20.70;18.10;;;;;;5038717;28;20608;-68
2022/05/10 08:33:24;;;;;;;6.93;1.73;;;20.70;18.40;;;;;;5035763;28;20127;-68
2022/05/10 08:35:52;;;;;;;7.03;1.98;;;20.60;17.80;;;;;;5036689;28;20080;-68
2022/05/10 08:38:18;;;;;;;9.50;1.63;;;20.60;17.30;;;;;;5035848;28;20523;-66
2022/05/10 08:41:08;;;;;;;5.78;1.83;;;20.60;17.30;;;;;;5040292;28;20493;-66
2022/05/10 08:43:49;;;;;;;6.63;1.58;;;20.70;17.30;;;;;;5038474;28;20076;-68
2022/05/10 08:46:23;;;;;;;8.60;1.65;;;20.80;17.30;;;;;;5033876;28;20093;-68
2022/05/10 08:48:57;;;;;;;8.90;1.67;;;20.80;17.10;;;;;;5035820;28;20126;-67
2022/05/10 08:51:23;;;;;;;8.45;2.08;;;20.90;17.40;;;;;;5039036;28;20071;-66
2022/05/10 08:53:51;;;;;;;10.07;2.03;;;20.80;18.00;;;;;;5036083;28;20072;-66
2022/05/10 08:56:28;;;;;;;11.48;1.70;;;20.80;19.10;;;;;;5038587;28;20879;-66
2022/05/10 08:59:09;;;;;;;8.32;1.75;;;20.60;19.60;;;;;;5038103;28;20537;-64
2022/05/10 09:01:45;;;;;;;9.13;1.70;;;20.60;19.70;;;;;;5023434;28;20076;-68
2022/05/10 09:04:28;;;;;;;8.35;1.67;;;20.50;19.40;;;;;;5039700;28;20449;-66
2022/05/10 09:07:08;;;;;;;8.93;1.77;;;20.50;19.60;;;;;;5037572;28;20096;-68
2022/05/10 09:09:53;;;;;;;4.18;1.40;;;20.50;19.50;;;;;;5037232;28;20087;-70
2022/05/10 09:12:20;;;;;;;4.93;1.33;;;20.60;19.20;;;;;;5039973;28;20105;-67
2022/05/10 09:14:58;;;;;;;7.72;1.63;;;20.50;20.10;;;;;;5036547;28;20159;-66
2022/05/10 09:17:29;;;;;;;7.18;1.88;;;20.40;20.50;;;;;;5035998;28;20072;-67
2022/05/10 09:19:56;;;;;;;4.22;1.30;;;20.30;20.70;;;;;;5019405;28;20088;-66
2022/05/10 09:22:59;;;;;;;12.20;1.80;;;20.20;20.70;;;;;;5036340;28;20474;-68
2022/05/10 09:25:35;;;;;;;7.50;1.95;;;20.10;20.70;;;;;;5044420;28;20449;-68
2022/05/10 09:28:20;;;;;;;9.68;1.85;;;20.10;20.20;;;;;;5041080;28;20084;-68
2022/05/10 09:36:27;;;;;;;5.97;1.70;;;20.30;19.40;;;;;;5036333;28;20544;-67
2022/05/10 09:39:01;;;;;;;7.60;1.60;;;20.40;19.20;;;;;;5033893;28;20169;-66
2022/05/10 09:41:41;;;;;;;4.43;1.25;;;20.40;19.10;;;;;;5035501;28;20171;-66
2022/05/10 09:44:21;;;;;;;8.18;1.65;;;20.40;19.10;;;;;;5039468;28;20068;-66
2022/05/10 09:46:48;;;;;;;6.75;1.90;;;20.50;19.00;;;;;;5037010;28;20112;-67
2022/05/10 09:49:37;;;;;;;7.78;1.58;;;20.50;18.90;;;;;;5034242;28;20080;-68
2022/05/10 09:52:05;;;;;;;19.13;2.40;;;20.50;18.90;;;;;;5033728;28;20143;-67
2022/05/10 09:54:38;;;;;;;10.90;2.08;;;20.50;18.60;;;;;;5036066;28;20083;-67
2022/05/10 09:57:10;;;;;;;13.38;2.47;;;20.60;18.40;;;;;;5038750;28;20080;-69
2022/05/10 09:59:48;;;;;;;14.73;2.88;;;20.60;18.30;;;;;;5043453;28;20167;-67
2022/05/10 10:02:27;;;;;;;12.10;2.90;;;20.70;18.30;;;;;;5041213;28;20143;-67
2022/05/10 10:04:53;;;;;;;16.02;3.28;;;20.80;18.30;;;;;;5039877;28;20168;-69
2022/05/10 10:07:24;;;;;;;15.45;3.08;;;20.80;18.30;;;;;;5040230;28;20592;-68
2022/05/10 10:10:14;;;;;;;15.75;3.58;;;20.80;18.40;;;;;;5031758;28;20353;-68
2022/05/10 10:12:43;;;;;;;31.38;4.15;;;20.90;18.20;;;;;;5046269;28;20088;-68
2022/05/10 10:15:24;;;;;;;22.25;3.05;;;20.90;18.20;;;;;;5020301;28;20081;-66
2022/05/10 10:18:03;;;;;;;29.88;4.43;;;21.00;18.20;;;;;;5037640;28;20122;-68
2022/05/10 10:20:42;;;;;;;12.63;3.15;;;20.90;18.40;;;;;;5040495;28;20610;-66
2022/05/10 10:23:35;;;;;;;13.23;2.15;;;20.80;18.60;;;;;;5037545;28;20088;-67
2022/05/10 10:26:14;;;;;;;15.40;2.30;;;20.80;18.70;;;;;;5027617;28;20104;-67
2022/05/10 10:29:01;;;;;;;9.35;1.75;;;20.80;18.70;;;;;;5039686;28;20072;-66
2022/05/10 10:31:33;;;;;;;6.07;1.92;;;20.80;18.80;;;;;;5048493;28;20084;-67
2022/05/10 10:34:19;;;;;;;10.57;1.75;;;20.80;18.80;;;;;;5046995;28;20122;-65
2022/05/10 10:37:19;;;;;;;8.02;1.20;;;20.80;18.70;;;;;;5037442;28;20085;-68
2022/05/10 10:40:15;;;;;;;7.28;1.50;;;20.90;18.60;;;;;;4971236;28;20148;-66
2022/05/10 10:43:07;;;;;;;11.52;1.25;;;20.90;18.50;;;;;;4982371;28;20149;-64
2022/05/10 10:45:40;;;;;;;6.35;1.50;;;21.00;18.40;;;;;;4976230;28;22101;-65
2022/05/10 10:48:21;;;;;;;7.97;1.50;;;21.00;18.30;;;;;;4954551;28;20097;-67
2022/05/10 10:50:47;;;;;;;11.75;1.75;;;21.00;18.20;;;;;;4970171;28;20524;-66
2022/05/10 10:53:14;;;;;;;7.85;1.73;;;21.10;18.20;;;;;;4986297;28;20475;-67
2022/05/10 10:55:43;;;;;;;7.75;1.63;;;21.00;18.20;;;;;;4985648;28;20084;-67
2022/05/10 10:58:15;;;;;;;7.18;1.30;;;21.00;18.10;;;;;;4982539;28;20164;-66
2022/05/10 11:00:53;;;;;;;7.28;1.33;;;20.90;18.00;;;;;;4987218;28;20084;-67
2022/05/10 11:03:22;;;;;;;11.93;2.05;;;20.90;18.10;;;;;;4984532;28;20104;-65
2022/05/10 11:06:20;;;;;;;10.02;1.75;;;20.90;17.90;;;;;;4985363;28;20540;-68
2022/05/10 11:09:10;;;;;;;14.57;1.58;;;20.80;17.70;;;;;;4976754;28;20126;-66
2022/05/10 11:11:57;;;;;;;11.75;1.70;;;20.90;17.80;;;;;;4970884;28;20074;-68
2022/05/10 11:14:47;;;;;;;10.82;1.73;;;20.80;18.00;;;;;;4955032;28;20997;-69
2022/05/10 11:17:26;;;;;;;5.72;1.60;;;20.70;18.90;;;;;;5031060;28;20092;-66
2022/05/10 11:20:34;;;;;;;3.03;1.13;;;20.50;19.50;;;;;;5038470;28;20079;-66
2022/05/10 11:23:10;;;;;;;4.85;1.50;;;20.30;20.60;;;;;;5019890;28;20253;-66
2022/05/10 11:25:51;;;;;;;4.13;1.23;;;20.10;20.30;;;;;;5039370;28;20088;-66
2022/05/10 11:28:24;;;;;;;2.85;0.93;;;19.90;20.20;;;;;;5036380;28;20076;-67
2022/05/10 11:31:22;;;;;;;5.40;1.02;;;19.80;20.30;;;;;;5039176;28;20146;-68
2022/05/10 11:34:11;;;;;;;5.10;1.25;;;19.70;20.40;;;;;;5038360;28;20081;-67
2022/05/10 11:36:44;;;;;;;6.15;1.20;;;19.70;20.60;;;;;;5033963;28;20076;-66
2022/05/10 11:39:13;;;;;;;3.55;1.10;;;19.60;20.80;;;;;;5036471;28;20530;-67
2022/05/10 11:41:55;;;;;;;6.65;1.67;;;19.50;20.90;;;;;;5038985;28;20081;-69
2022/05/10 11:44:27;;;;;;;6.72;1.40;;;19.50;20.90;;;;;;5039315;28;20915;-69
2022/05/10 11:46:54;;;;;;;6.05;1.23;;;19.40;20.80;;;;;;5038561;28;20507;-69
2022/05/10 11:49:29;;;;;;;;;;;19.40;21.00;;;;;;5039088;28;20182;-67
2022/05/10 11:52:31;;;;;;;2.15;0.93;;;19.40;21.10;;;;;;5039260;28;20010;-66
2022/05/10 11:55:24;;;;;;;8.15;1.30;;;19.30;21.20;;;;;;5037679;28;20068;-67
2022/05/10 11:58:03;;;;;;;6.35;1.40;;;19.20;21.30;;;;;;5042763;28;20093;-66
2022/05/10 12:00:32;;;;;;;6.18;1.48;;;19.10;21.60;;;;;;5041920;28;20065;-66
2022/05/10 12:03:04;;;;;;;5.88;1.38;;;19.00;22.10;;;;;;5042097;28;20914;-67
2022/05/10 12:05:33;;;;;;;6.25;1.50;;;18.90;22.20;;;;;;5035850;28;20096;-65
2022/05/10 12:08:15;;;;;;;4.05;1.38;;;18.80;22.40;;;;;;5037012;28;20146;-67
2022/05/10 12:10:43;;;;;;;5.47;1.45;;;18.80;22.40;;;;;;5037976;28;20082;-67
2022/05/10 12:21:19;;;;;;;7.18;1.40;;;18.80;22.70;;;;;;5036048;28;20073;-68
2022/05/10 12:22:07;;;;;;;5.30;1.27;;;18.50;23.10;;;;;;5037030;28;20171;-68
2022/05/10 12:24:44;;;;;;;6.63;1.40;;;18.50;23.00;;;;;;5037538;28;20127;-66
2022/05/10 12:27:13;;;;;;;4.00;1.40;;;18.50;22.80;;;;;;5036933;28;20634;-67
2022/05/10 12:29:39;;;;;;;7.13;1.65;;;18.50;22.50;;;;;;5036104;28;20079;-66
2022/05/10 12:32:18;;;;;;;;;;;18.50;22.30;;;;;;5039435;28;20076;-68
2022/05/10 12:34:44;;;;;;;5.72;1.20;;;18.50;22.00;;;;;;5038188;28;19995;-68
2022/05/10 12:37:24;;;;;;;;;;;18.60;21.80;;;;;;5040287;28;20077;-67
2022/05/10 12:40:09;;;;;;;9.35;1.58;;;18.60;21.70;;;;;;5050556;28;20022;-66
2022/05/10 12:43:14;;;;;;;10.32;1.60;;;18.60;21.70;;;;;;5036681;28;20094;-66
2022/05/10 12:45:56;;;;;;;9.35;1.58;;;18.60;21.60;;;;;;5036749;28;20134;-66
2022/05/10 12:48:44;;;;;;;5.78;1.20;;;18.70;21.50;;;;;;5037484;28;20092;-67
2022/05/10 12:51:22;;;;;;;7.07;2.03;;;18.60;21.50;;;;;;5042030;28;20429;-67
2022/05/10 12:53:52;;;;;;;7.28;1.40;;;18.70;21.50;;;;;;5039126;28;20068;-64
2022/05/10 12:56:28;;;;;;;10.65;1.42;;;18.60;21.50;;;;;;5045057;28;20159;-65
2022/05/10 12:59:03;;;;;;;5.18;1.40;;;18.70;21.50;;;;;;5055861;28;20076;-65
2022/05/10 13:01:37;;;;;;;6.03;1.45;;;18.70;21.50;;;;;;5028003;28;20522;-67
2022/05/10 13:04:20;;;;;;;8.05;1.50;;;18.80;21.90;;;;;;5034559;28;20097;-66
2022/05/10 13:07:12;;;;;;;12.77;1.77;;;18.70;22.00;;;;;;5037579;28;20089;-66
2022/05/10 13:09:43;;;;;;;9.85;1.63;;;18.60;22.10;;;;;;5039492;28;20154;-66
2022/05/10 13:12:43;;;;;;;8.18;1.27;;;18.60;21.70;;;;;;5038713;28;20180;-67
2022/05/10 13:15:23;;;;;;;6.97;1.40;;;18.60;21.40;;;;;;4946964;29;20549;-66
2022/05/10 13:17:55;;;;;;;5.30;1.33;;;18.70;21.30;;;;;;4955103;28;20067;-66
2022/05/10 13:20:28;;;;;;;6.78;1.38;;;18.70;21.20;;;;;;4948032;29;20110;-66
2022/05/10 13:23:03;;;;;;;4.93;1.48;;;18.70;21.50;;;;;;4937009;29;20126;-68
2022/05/10 13:25:43;;;;;;;11.02;1.50;;;18.70;21.40;;;;;;4924359;29;20106;-66
2022/05/10 13:28:24;;;;;;;9.02;1.95;;;18.80;21.00;;;;;;4959126;28;20070;-67
2022/05/10 13:30:53;;;;;;;6.90;1.88;;;18.80;21.30;;;;;;4911346;29;20075;-67
2022/05/10 13:33:22;;;;;;;20.58;1.95;;;18.80;21.20;;;;;;4927685;29;20531;-68